Time;durP1;ratioP1;P1;durP2;ratioP2;P2;SDS_P1;SDS_P2;PMS_P1;PMS_P2;Temp;Humidity;BMP_temperature;BMP_pressure;BME280_temperature;BME280_humidity;BME280_pressure;Samples;Min_cycle;Max_cycle;Signal;HPM_P1;HPM_P2
2022/12/22 06:32:09;;;;;;;63.08;34.38;;;6.50;99.90;;;;;;5009583;23;20459;-92
2022/12/22 06:34:36;;;;;;;61.33;33.85;;;6.50;99.90;;;;;;4941819;29;20046;-92
2022/12/22 06:37:02;;;;;;;57.42;32.78;;;6.50;99.90;;;;;;4941665;29;20019;-93
2022/12/22 06:39:29;;;;;;;57.95;31.20;;;6.50;99.90;;;;;;4941639;29;20416;-93
2022/12/22 06:44:40;;;;;;;50.45;28.30;;;6.50;99.90;;;;;;4954384;29;20039;-93
2022/12/22 06:47:07;;;;;;;48.92;26.90;;;6.80;99.90;;;;;;4938413;29;20031;-93
2022/12/22 06:49:34;;;;;;;42.95;24.30;;;7.10;99.90;;;;;;4938256;29;20035;-93
2022/12/22 06:52:00;;;;;;;45.40;26.13;;;7.50;99.90;;;;;;4922777;29;20080;-92
2022/12/22 06:54:27;;;;;;;43.72;25.83;;;7.80;99.90;;;;;;4938732;29;20035;-93
2022/12/22 06:56:54;;;;;;;45.83;27.83;;;7.80;99.90;;;;;;4938639;29;20079;-93
2022/12/22 06:59:20;;;;;;;44.53;25.27;;;7.80;99.90;;;;;;4938405;29;20584;-93
2022/12/22 07:01:47;;;;;;;43.10;23.77;;;7.70;99.90;;;;;;4938271;29;20031;-92
2022/12/22 07:04:18;;;;;;;41.90;23.75;;;7.80;99.90;;;;;;4933652;29;20515;-92
2022/12/22 07:06:51;;;;;;;43.85;23.25;;;7.80;99.90;;;;;;4938317;29;20454;-94
2022/12/22 07:09:18;;;;;;;33.38;23.10;;;8.00;99.90;;;;;;4937789;29;20027;-92
2022/12/22 07:11:44;;;;;;;36.40;23.83;;;8.10;99.90;;;;;;4921728;29;20503;-92
2022/12/22 07:14:10;;;;;;;38.65;25.23;;;8.30;99.90;;;;;;4937580;29;20032;-92
2022/12/22 07:16:37;;;;;;;36.05;25.70;;;8.50;99.90;;;;;;4938104;29;20114;-93
2022/12/22 07:19:04;;;;;;;29.73;23.67;;;8.80;99.90;;;;;;4937779;29;20401;-94
2022/12/22 07:21:31;;;;;;;29.05;23.52;;;9.10;99.90;;;;;;4937738;29;20408;-94
2022/12/22 07:23:57;;;;;;;30.98;24.15;;;9.50;99.90;;;;;;4937825;29;20051;-93
2022/12/22 07:26:24;;;;;;;30.23;23.20;;;9.80;99.90;;;;;;4937824;29;20023;-92
2022/12/22 07:28:50;;;;;;;33.15;25.67;;;10.20;99.90;;;;;;4937912;29;20512;-93
2022/12/22 07:31:17;;;;;;;33.47;26.25;;;10.40;99.90;;;;;;4937375;29;20051;-94
2022/12/22 07:33:44;;;;;;;30.70;25.77;;;10.50;99.90;;;;;;4937391;29;20032;-93
2022/12/22 07:36:14;;;;;;;33.05;28.38;;;10.30;99.90;;;;;;4921744;29;20039;-94
2022/12/22 07:38:43;;;;;;;38.28;28.83;;;10.20;99.90;;;;;;4938545;29;20027;-93
2022/12/22 07:43:58;;;;;;;28.17;24.85;;;10.00;99.90;;;;;;4937863;29;20036;-92
2022/12/22 07:46:27;;;;;;;31.35;25.60;;;10.10;99.90;;;;;;4937356;29;20501;-94
2022/12/22 07:51:41;;;;;;;24.13;21.52;;;10.60;99.90;;;;;;4937447;29;20054;-92
2022/12/22 07:54:10;;;;;;;28.63;21.63;;;10.90;99.90;;;;;;4937165;29;20027;-92
2022/12/22 07:56:37;;;;;;;26.77;21.48;;;11.20;99.90;;;;;;4953096;28;20551;-91
2022/12/22 07:59:04;;;;;;;25.33;20.42;;;11.40;99.90;;;;;;4937364;29;20043;-94
2022/12/22 08:01:30;;;;;;;22.48;20.10;;;11.60;99.90;;;;;;4937306;29;20027;-93
2022/12/22 08:03:57;;;;;;;23.75;21.25;;;11.80;99.90;;;;;;4937480;29;20027;-94
2022/12/22 08:06:24;;;;;;;23.40;19.77;;;12.00;99.90;;;;;;4938482;29;20028;-92
2022/12/22 08:08:51;;;;;;;24.40;21.85;;;12.10;99.90;;;;;;4936899;29;20038;-92
2022/12/22 08:11:17;;;;;;;24.63;21.88;;;12.40;99.90;;;;;;4936998;29;20028;-92
2022/12/22 08:13:43;;;;;;;24.77;22.17;;;12.40;99.90;;;;;;4936387;29;20055;-92
2022/12/22 08:16:12;;;;;;;26.83;23.52;;;12.60;99.90;;;;;;4936527;29;20028;-94
2022/12/22 08:18:39;;;;;;;26.80;24.00;;;12.60;99.90;;;;;;4936343;29;20027;-93
2022/12/22 08:21:06;;;;;;;28.92;23.98;;;12.50;99.90;;;;;;4936416;29;20039;-91
2022/12/22 08:23:34;;;;;;;28.48;23.88;;;12.50;99.90;;;;;;4935626;29;20034;-92
2022/12/22 08:26:07;;;;;;;29.83;24.95;;;12.50;99.90;;;;;;4936505;29;20066;-94
2022/12/22 08:28:39;;;;;;;28.08;24.83;;;12.50;99.90;;;;;;4952284;29;20035;-93
2022/12/22 08:31:06;;;;;;;26.08;23.27;;;12.60;99.90;;;;;;4936080;29;20134;-93
2022/12/22 08:33:33;;;;;;;24.67;21.70;;;12.60;99.90;;;;;;4936115;29;20400;-93
2022/12/22 08:36:00;;;;;;;40.15;22.17;;;12.70;99.90;;;;;;4951945;29;20028;-93
2022/12/22 08:38:26;;;;;;;25.67;21.13;;;12.80;99.90;;;;;;4936141;29;20028;-93
2022/12/22 08:40:53;;;;;;;22.73;20.33;;;12.90;99.90;;;;;;4935825;29;20397;-93
2022/12/22 08:43:20;;;;;;;22.00;19.23;;;13.00;99.90;;;;;;4936052;29;20024;-93
2022/12/22 08:45:47;;;;;;;24.73;20.02;;;13.00;99.90;;;;;;4936518;29;20035;-94
2022/12/22 08:48:13;;;;;;;22.95;20.33;;;13.10;99.90;;;;;;4920254;29;20040;-93
2022/12/22 08:50:40;;;;;;;20.75;18.65;;;13.20;99.90;;;;;;4951906;29;20028;-93
2022/12/22 08:53:07;;;;;;;20.92;18.38;;;13.30;99.90;;;;;;4920485;29;20031;-93
2022/12/22 08:55:34;;;;;;;21.48;19.42;;;13.40;99.90;;;;;;4920232;29;20031;-93
2022/12/22 08:58:00;;;;;;;22.25;19.55;;;13.50;99.90;;;;;;4920577;29;20051;-93
2022/12/22 09:00:30;;;;;;;23.05;20.70;;;13.70;99.90;;;;;;4951523;29;20031;-93
2022/12/22 09:02:56;;;;;;;23.38;19.95;;;13.80;99.90;;;;;;4935858;29;20020;-93
2022/12/22 09:05:22;;;;;;;22.35;20.05;;;13.90;99.90;;;;;;4935638;29;20118;-93
2022/12/22 09:07:49;;;;;;;22.92;19.52;;;13.90;99.90;;;;;;4936168;29;20024;-92
2022/12/22 09:10:15;;;;;;;23.30;20.98;;;13.90;99.90;;;;;;4919732;29;20028;-93
2022/12/22 09:12:41;;;;;;;25.00;21.17;;;14.00;99.90;;;;;;4935425;29;20062;-92
2022/12/22 09:15:08;;;;;;;21.92;19.65;;;14.20;99.90;;;;;;4919915;29;20031;-94
2022/12/22 09:17:37;;;;;;;22.92;20.45;;;14.10;99.90;;;;;;4935390;29;20035;-92
2022/12/22 09:20:06;;;;;;;24.00;20.15;;;14.20;99.90;;;;;;4951610;29;20460;-93
2022/12/22 09:22:34;;;;;;;22.38;19.83;;;14.20;99.90;;;;;;4935651;29;20028;-93
2022/12/22 09:25:00;;;;;;;20.40;18.60;;;14.20;99.90;;;;;;4935687;29;20079;-93
2022/12/22 09:27:26;;;;;;;21.95;18.98;;;14.40;99.90;;;;;;4935781;29;20026;-93
2022/12/22 09:29:53;;;;;;;22.10;19.92;;;14.40;99.90;;;;;;4936251;29;20032;-94
2022/12/22 09:32:19;;;;;;;20.98;18.90;;;14.60;99.90;;;;;;4901101;29;20122;-93
2022/12/22 09:34:45;;;;;;;22.17;19.30;;;14.80;99.90;;;;;;4903560;29;20449;-92
2022/12/22 09:37:15;;;;;;;19.13;17.20;;;14.90;99.90;;;;;;4906009;29;20032;-93
2022/12/22 09:39:41;;;;;;;19.90;17.58;;;15.10;99.90;;;;;;4904928;29;20048;-92
2022/12/22 09:42:20;;;;;;;18.83;17.02;;;15.30;99.90;;;;;;4904625;29;20081;-92
2022/12/22 09:44:50;;;;;;;19.75;18.25;;;15.30;99.90;;;;;;4904823;29;20131;-91
2022/12/22 09:47:36;;;;;;;20.00;18.30;;;15.20;99.90;;;;;;4904637;29;20028;-92
2022/12/22 09:50:04;;;;;;;26.63;20.33;;;15.20;99.90;;;;;;4904588;29;20184;-93
2022/12/22 09:52:34;;;;;;;21.35;19.40;;;15.20;99.90;;;;;;4904662;29;20035;-93
2022/12/22 09:55:01;;;;;;;21.20;19.30;;;15.20;99.90;;;;;;4904758;29;20028;-92
2022/12/22 09:57:30;;;;;;;20.67;18.88;;;15.20;99.90;;;;;;4905377;29;20032;-92
2022/12/22 10:00:19;;;;;;;20.58;18.88;;;15.10;99.90;;;;;;4904628;29;20036;-92
2022/12/22 10:02:51;;;;;;;22.13;19.98;;;15.10;99.90;;;;;;4888837;29;20343;-94
2022/12/22 10:05:27;;;;;;;21.55;19.65;;;15.10;99.90;;;;;;4920154;29;20032;-94
2022/12/22 10:08:00;;;;;;;21.08;19.13;;;15.10;99.90;;;;;;4904003;29;20028;-92
2022/12/22 10:10:29;;;;;;;19.77;18.20;;;15.20;99.90;;;;;;4904101;29;20039;-94
2022/12/22 10:13:00;;;;;;;21.00;19.13;;;15.10;99.90;;;;;;4904164;29;20020;-92
2022/12/22 10:15:34;;;;;;;21.25;19.30;;;15.00;99.90;;;;;;4888567;29;20028;-93
2022/12/22 10:18:22;;;;;;;19.85;18.33;;;14.90;99.90;;;;;;4919772;29;20028;-93
2022/12/22 10:21:10;;;;;;;18.67;17.27;;;14.80;99.90;;;;;;4904094;29;20127;-93
2022/12/22 10:23:44;;;;;;;19.77;18.27;;;14.70;99.90;;;;;;4903898;29;20032;-93
2022/12/22 10:26:39;;;;;;;;;;;14.70;99.90;;;;;;4904391;29;20500;-93
2022/12/22 10:29:16;;;;;;;20.88;19.35;;;14.70;99.90;;;;;;4829138;29;19912;-93
2022/12/22 10:32:04;;;;;;;20.70;19.02;;;14.90;99.90;;;;;;4828783;29;20521;-93
2022/12/22 10:34:31;;;;;;;20.40;18.70;;;15.20;99.90;;;;;;4829079;29;20064;-93
2022/12/22 10:37:03;;;;;;;20.70;18.95;;;15.10;99.90;;;;;;4828702;29;20057;-92
2022/12/22 10:39:35;;;;;;;20.25;18.55;;;15.10;99.90;;;;;;4844068;29;20061;-93
2022/12/22 10:42:10;;;;;;;20.48;18.42;;;15.00;99.90;;;;;;4828974;29;20205;-94
2022/12/22 10:44:45;;;;;;;20.60;19.00;;;15.20;99.90;;;;;;4828907;29;20034;-93
2022/12/22 10:47:22;;;;;;;19.98;18.30;;;15.20;99.90;;;;;;4828816;29;20046;-94
2022/12/22 10:49:57;;;;;;;21.33;19.65;;;15.20;99.90;;;;;;4831893;29;20037;-93
2022/12/22 10:52:25;;;;;;;20.80;19.30;;;15.20;99.90;;;;;;4847246;29;20105;-94
2022/12/22 10:54:51;;;;;;;21.25;19.63;;;15.10;99.90;;;;;;4846937;29;20033;-93
2022/12/22 10:57:17;;;;;;;20.45;18.67;;;15.00;99.90;;;;;;4846673;29;20032;-93
2022/12/22 10:59:53;;;;;;;21.20;19.40;;;15.00;99.90;;;;;;4847019;29;20049;-92
2022/12/22 11:02:19;;;;;;;21.10;19.40;;;14.90;99.90;;;;;;4846882;29;20130;-93
2022/12/22 11:04:50;;;;;;;21.67;19.92;;;14.90;99.90;;;;;;4858568;29;20048;-94
2022/12/22 11:07:17;;;;;;;22.05;20.30;;;14.90;99.90;;;;;;4903002;29;20028;-94
2022/12/22 11:09:43;;;;;;;22.67;20.90;;;15.10;99.90;;;;;;4903139;29;20115;-93
2022/12/22 11:12:30;;;;;;;22.80;20.90;;;15.30;99.90;;;;;;4903097;29;20051;-92
2022/12/22 11:15:14;;;;;;;23.13;21.02;;;15.30;99.90;;;;;;4919019;29;20029;-93
2022/12/22 11:17:43;;;;;;;23.13;21.02;;;15.20;99.90;;;;;;4918774;29;20500;-93
2022/12/22 11:20:27;;;;;;;21.50;20.00;;;15.10;99.90;;;;;;4903149;29;20130;-93
2022/12/22 11:23:00;;;;;;;22.80;20.90;;;15.10;99.90;;;;;;4903523;29;20084;-93
2022/12/22 11:25:32;;;;;;;24.73;22.75;;;15.20;99.90;;;;;;4903423;29;20032;-94
2022/12/22 11:28:15;;;;;;;22.65;20.95;;;15.20;99.90;;;;;;4904859;29;20060;-92
2022/12/22 11:31:24;;;;;;;23.55;21.73;;;15.20;99.90;;;;;;4902878;29;20040;-93
2022/12/22 11:34:27;;;;;;;21.77;20.10;;;15.20;99.90;;;;;;4861932;29;20128;-93
2022/12/22 11:37:10;;;;;;;21.55;19.95;;;15.20;99.90;;;;;;4846110;29;20111;-93
2022/12/22 11:39:44;;;;;;;20.73;19.08;;;15.50;99.90;;;;;;4895327;29;20052;-93
2022/12/22 11:42:29;;;;;;;;;;;15.90;99.90;;;;;;4903202;29;20028;-93
2022/12/22 11:45:19;;;;;;;17.70;16.40;;;16.20;99.90;;;;;;4902795;29;19911;-94
2022/12/22 11:47:57;;;;;;;16.60;15.40;;;16.30;99.90;;;;;;4918455;29;20506;-93
2022/12/22 11:50:43;;;;;;;18.38;16.95;;;16.10;99.90;;;;;;4903705;29;20115;-93
2022/12/22 11:53:21;;;;;;;18.55;17.33;;;16.00;99.90;;;;;;4903073;29;20036;-92
2022/12/22 11:56:15;;;;;;;19.05;17.73;;;15.80;99.90;;;;;;4902408;29;20024;-93
2022/12/22 11:59:00;;;;;;;19.50;18.20;;;15.90;99.90;;;;;;4901235;29;20040;-94
2022/12/22 12:01:48;;;;;;;19.42;18.02;;;15.90;99.90;;;;;;4902351;29;20040;-93
2022/12/22 12:04:31;;;;;;;20.92;19.42;;;16.10;99.90;;;;;;4902426;29;20048;-92
2022/12/22 12:07:35;;;;;;;19.42;18.02;;;16.30;99.90;;;;;;4902036;29;20036;-92
2022/12/22 12:10:23;;;;;;;18.80;17.60;;;16.30;99.90;;;;;;4917577;29;20071;-93
2022/12/22 12:12:49;;;;;;;18.40;17.30;;;16.10;99.90;;;;;;4901813;29;20126;-94
2022/12/22 12:15:31;;;;;;;20.45;18.85;;;16.00;99.90;;;;;;4901776;29;20028;-93
2022/12/22 12:18:15;;;;;;;19.58;18.15;;;15.90;99.90;;;;;;4902291;29;20036;-91
2022/12/22 12:20:44;;;;;;;18.88;17.67;;;16.00;99.90;;;;;;4917502;29;20048;-92
2022/12/22 12:23:49;;;;;;;20.00;18.33;;;15.90;99.90;;;;;;4901647;29;20048;-94
2022/12/22 12:26:38;;;;;;;19.25;17.92;;;15.70;99.90;;;;;;4902586;29;20039;-94
2022/12/22 12:29:27;;;;;;;19.70;18.30;;;15.70;99.90;;;;;;4917664;29;20035;-93
2022/12/22 12:32:02;;;;;;;19.17;17.77;;;15.70;99.90;;;;;;4928659;29;20527;-94
2022/12/22 12:34:41;;;;;;;18.05;16.98;;;15.70;99.90;;;;;;4940458;29;20477;-93
2022/12/22 12:37:19;;;;;;;18.45;17.35;;;15.60;99.90;;;;;;4941298;29;20039;-94
2022/12/22 12:40:15;;;;;;;19.05;17.88;;;15.40;99.90;;;;;;4957037;29;20043;-95
2022/12/22 12:42:45;;;;;;;19.02;17.73;;;15.30;99.90;;;;;;4956238;29;20035;-94
2022/12/22 12:45:36;;;;;;;18.65;17.45;;;15.10;99.90;;;;;;4939936;29;20035;-93
2022/12/22 12:48:24;;;;;;;18.25;16.92;;;15.10;99.90;;;;;;4955355;28;20040;-94
2022/12/22 12:51:18;;;;;;;18.20;16.77;;;15.10;99.90;;;;;;4961075;29;20074;-94
2022/12/22 12:54:39;;;;;;;18.67;17.33;;;15.10;99.90;;;;;;4947728;29;20031;-94
2022/12/22 13:04:11;;;;;;;20.42;18.90;;;15.10;99.90;;;;;;4920845;29;20380;-94
2022/12/22 13:07:20;;;;;;;;;;;;;;;;;;;;;
2022/12/22 13:10:21;;;;;;;19.40;17.95;;;15.00;99.90;;;;;;5007328;23;20112;-93
2022/12/22 13:13:19;;;;;;;19.38;17.88;;;15.00;99.90;;;;;;4961571;28;20037;-94
2022/12/22 13:16:04;;;;;;;19.05;17.52;;;15.00;99.90;;;;;;4965332;28;20042;-93
2022/12/22 13:18:47;;;;;;;;;;;;;;;;;;;;;
2022/12/22 13:22:04;;;;;;;18.42;17.17;;;14.90;99.90;;;;;;4941230;29;20054;-93
2022/12/22 13:25:07;;;;;;;21.17;19.58;;;14.80;99.90;;;;;;4900033;29;20044;-94
2022/12/22 13:27:36;;;;;;;19.15;17.75;;;14.70;99.90;;;;;;4868521;29;20044;-93
2022/12/22 13:30:02;;;;;;;19.73;18.33;;;14.50;99.90;;;;;;4897376;29;20104;-93
2022/12/22 13:32:40;;;;;;;18.42;17.15;;;14.50;99.90;;;;;;4897079;29;20032;-94
2022/12/22 13:35:31;;;;;;;19.20;17.67;;;14.50;99.90;;;;;;4897512;29;20132;-94
2022/12/22 13:38:01;;;;;;;18.40;16.95;;;14.60;99.90;;;;;;4882098;29;20115;-93
2022/12/22 13:40:42;;;;;;;18.73;17.17;;;14.80;99.90;;;;;;4897456;29;20546;-93
2022/12/22 13:43:14;;;;;;;19.73;17.98;;;15.00;99.90;;;;;;4898295;29;20495;-95
2022/12/22 13:45:42;;;;;;;17.85;16.55;;;15.20;99.90;;;;;;4898611;29;20124;-93
2022/12/22 13:48:40;;;;;;;18.15;16.85;;;15.40;99.90;;;;;;4897702;29;20033;-93
2022/12/22 13:51:27;;;;;;;17.98;16.67;;;15.50;99.90;;;;;;4897393;29;20049;-94
2022/12/22 13:53:59;;;;;;;17.67;16.58;;;15.60;99.90;;;;;;4897439;29;20033;-94
2022/12/22 13:56:46;;;;;;;19.15;17.77;;;15.70;99.90;;;;;;4897708;29;20041;-95
2022/12/22 13:59:34;;;;;;;19.33;17.90;;;15.70;99.90;;;;;;4882091;29;20044;-93
2022/12/22 14:02:20;;;;;;;18.83;17.38;;;15.70;99.90;;;;;;4902620;29;20044;-95
2022/12/22 14:05:07;;;;;;;18.77;17.38;;;15.60;99.90;;;;;;4934477;29;20032;-95
2022/12/22 14:07:34;;;;;;;18.73;17.40;;;15.50;99.90;;;;;;4932522;29;20059;-93
2022/12/22 14:10:00;;;;;;;19.50;18.10;;;15.40;99.90;;;;;;4932590;29;20121;-93
2022/12/22 14:12:46;;;;;;;18.38;17.08;;;15.30;99.90;;;;;;4932947;29;20035;-94
2022/12/22 14:15:18;;;;;;;18.25;16.98;;;15.10;99.90;;;;;;4916479;29;20028;-93
2022/12/22 14:17:45;;;;;;;19.10;17.77;;;15.00;99.90;;;;;;4916581;29;20442;-93
2022/12/22 14:20:21;;;;;;;19.25;17.95;;;14.90;99.90;;;;;;4925250;29;20048;-95
2022/12/22 14:23:08;;;;;;;19.10;17.80;;;14.80;99.90;;;;;;4920084;29;20091;-94
2022/12/22 14:25:38;;;;;;;20.55;18.75;;;14.70;99.90;;;;;;4905082;29;20466;-94
2022/12/22 14:28:29;;;;;;;19.17;17.80;;;14.70;99.90;;;;;;5022920;23;20089;-94
2022/12/22 14:30:58;;;;;;;18.95;17.60;;;14.50;99.90;;;;;;4958999;29;20042;-95
2022/12/22 14:33:39;;;;;;;19.33;17.95;;;14.40;99.90;;;;;;4969423;29;20084;-94
2022/12/22 14:36:24;;;;;;;19.55;17.92;;;14.40;99.90;;;;;;4947545;29;20074;-95
2022/12/22 14:39:29;;;;;;;18.95;17.45;;;14.30;99.90;;;;;;4944799;29;20040;-94
2022/12/22 14:42:02;;;;;;;19.00;17.70;;;14.30;99.90;;;;;;4950538;29;20087;-94
2022/12/22 14:44:39;;;;;;;20.83;19.30;;;14.20;99.90;;;;;;4947812;29;20040;-94
2022/12/22 14:47:18;;;;;;;18.55;17.15;;;14.20;99.90;;;;;;4923469;29;20098;-94
2022/12/22 14:50:20;;;;;;;19.35;17.80;;;14.10;99.90;;;;;;4939523;29;20062;-94
2022/12/22 14:52:50;;;;;;;19.33;17.92;;;14.00;99.90;;;;;;4848822;29;20041;-93
2022/12/22 14:55:39;;;;;;;19.10;17.70;;;13.90;99.90;;;;;;4862702;29;20080;-94
2022/12/22 14:58:19;;;;;;;18.85;17.35;;;13.80;99.90;;;;;;4862729;29;20400;-93
2022/12/22 15:00:48;;;;;;;18.83;17.08;;;13.70;99.90;;;;;;4862661;29;20042;-93
2022/12/22 15:03:39;;;;;;;18.60;17.15;;;13.60;99.90;;;;;;4862786;29;20124;-93
2022/12/22 15:06:27;;;;;;;18.80;17.25;;;13.50;99.90;;;;;;4863079;29;20120;-93
2022/12/22 15:09:10;;;;;;;18.02;16.52;;;13.40;99.90;;;;;;4847828;29;20048;-93
2022/12/22 15:11:45;;;;;;;18.08;16.67;;;13.20;99.90;;;;;;4864566;29;20029;-94
2022/12/22 15:14:18;;;;;;;17.30;15.90;;;13.10;99.90;;;;;;4864424;29;20033;-92
2022/12/22 15:16:45;;;;;;;17.75;16.10;;;13.00;99.90;;;;;;4863253;29;20033;-92
2022/12/22 15:19:19;;;;;;;20.58;18.35;;;12.90;99.90;;;;;;4862148;29;20038;-92
2022/12/22 15:21:49;;;;;;;;;;;12.80;99.90;;;;;;4862848;29;20052;-93
2022/12/22 15:24:17;;;;;;;21.92;18.42;;;12.70;99.90;;;;;;4846636;29;19919;-94
2022/12/22 15:26:45;;;;;;;21.20;17.77;;;12.60;99.90;;;;;;4863741;29;20475;-94
2022/12/22 15:29:12;;;;;;;19.67;17.73;;;12.50;99.90;;;;;;4915054;29;20039;-93
2022/12/22 15:31:41;;;;;;;17.65;15.82;;;12.40;99.90;;;;;;4938668;29;20039;-94
2022/12/22 15:34:34;;;;;;;16.65;14.90;;;12.40;99.90;;;;;;4941148;29;20031;-93
2022/12/22 15:37:01;;;;;;;18.70;16.77;;;12.30;99.90;;;;;;4919788;29;20064;-93
2022/12/22 15:39:27;;;;;;;21.73;16.60;;;12.20;99.90;;;;;;4938022;29;20440;-94
2022/12/22 15:41:54;;;;;;;18.70;16.63;;;12.00;99.90;;;;;;4938385;29;20122;-93
2022/12/22 15:44:21;;;;;;;21.23;16.98;;;11.90;99.90;;;;;;4937707;29;20032;-94
2022/12/22 15:46:55;;;;;;;23.30;16.88;;;11.70;99.90;;;;;;4937375;29;20035;-94
2022/12/22 15:49:25;;;;;;;19.85;17.35;;;11.60;99.90;;;;;;4921776;29;20031;-94
2022/12/22 15:52:08;;;;;;;24.15;19.95;;;11.50;99.90;;;;;;4937211;29;20028;-93
2022/12/22 15:54:35;;;;;;;29.08;19.75;;;11.30;99.90;;;;;;4937652;29;20035;-94
2022/12/22 15:57:10;;;;;;;28.30;20.25;;;11.30;99.90;;;;;;4922079;29;20024;-94
2022/12/22 15:59:38;;;;;;;28.15;19.55;;;11.20;99.90;;;;;;4921172;29;20123;-94
2022/12/22 16:02:11;;;;;;;25.10;19.77;;;11.10;99.90;;;;;;4937440;29;20024;-94
2022/12/22 16:04:38;;;;;;;34.65;19.30;;;11.10;99.90;;;;;;4937189;29;20035;-92
2022/12/22 16:07:05;;;;;;;27.23;19.50;;;11.00;99.90;;;;;;4937537;29;20027;-93
2022/12/22 16:09:43;;;;;;;33.55;19.38;;;11.00;99.90;;;;;;4937646;29;20028;-94
2022/12/22 16:12:18;;;;;;;28.10;19.38;;;10.90;99.90;;;;;;4916914;29;20455;-93
2022/12/22 16:14:49;;;;;;;33.63;18.60;;;10.90;99.90;;;;;;4921517;29;20474;-94
2022/12/22 16:17:18;;;;;;;29.98;18.88;;;10.90;99.90;;;;;;4937207;29;20074;-94
2022/12/22 16:19:51;;;;;;;28.65;18.65;;;10.90;99.90;;;;;;4937288;29;20070;-92
2022/12/22 16:22:44;;;;;;;30.02;20.23;;;10.90;99.90;;;;;;4941343;29;20040;-93
2022/12/22 16:25:33;;;;;;;26.38;18.55;;;11.00;99.90;;;;;;4924292;29;20032;-94
2022/12/22 16:28:01;;;;;;;38.72;24.98;;;11.10;99.90;;;;;;4936857;29;20032;-94
2022/12/22 16:30:31;;;;;;;33.20;25.63;;;11.30;99.90;;;;;;4921463;29;20043;-93
2022/12/22 16:35:52;;;;;;;39.72;26.75;;;11.70;99.90;;;;;;4925513;29;20040;-95
2022/12/22 16:38:23;;;;;;;36.97;25.95;;;11.70;99.90;;;;;;4938245;29;20043;-94
2022/12/22 16:40:53;;;;;;;36.42;24.58;;;11.80;99.90;;;;;;4920955;29;20379;-94
2022/12/22 16:43:24;;;;;;;35.22;24.83;;;11.90;99.90;;;;;;4918907;29;20028;-93
2022/12/22 16:45:51;;;;;;;34.70;25.08;;;11.90;99.90;;;;;;4917730;29;20032;-93
2022/12/22 16:48:32;;;;;;;39.28;27.30;;;12.00;99.90;;;;;;4886408;29;20036;-93
2022/12/22 16:50:59;;;;;;;39.88;25.98;;;12.00;99.90;;;;;;4917910;29;20099;-94
2022/12/22 16:53:27;;;;;;;33.80;24.20;;;12.00;99.90;;;;;;4888625;29;20056;-92
2022/12/22 16:55:54;;;;;;;35.92;24.33;;;12.10;99.90;;;;;;4904994;29;20389;-92
2022/12/22 16:58:21;;;;;;;32.25;23.35;;;12.10;99.90;;;;;;4919715;29;20032;-94
2022/12/22 17:00:54;;;;;;;30.55;23.42;;;12.10;99.90;;;;;;4918010;29;20031;-95
2022/12/22 17:03:26;;;;;;;37.17;26.40;;;12.10;99.90;;;;;;4886766;29;20032;-94
2022/12/22 17:06:03;;;;;;;39.58;28.20;;;12.10;99.90;;;;;;4888757;29;20040;-95
2022/12/22 17:08:41;;;;;;;40.20;28.20;;;12.10;99.90;;;;;;4918037;29;20032;-94
2022/12/22 17:11:16;;;;;;;42.80;29.25;;;12.10;99.90;;;;;;4918004;29;20095;-94
2022/12/22 17:13:43;;;;;;;38.45;26.23;;;12.10;99.90;;;;;;4918019;29;20036;-95
2022/12/22 17:16:20;;;;;;;43.25;28.55;;;12.10;99.90;;;;;;4903525;29;20032;-94
2022/12/22 17:18:51;;;;;;;38.63;28.33;;;12.10;99.90;;;;;;4901854;29;20046;-94
2022/12/22 17:21:21;;;;;;;40.75;28.77;;;12.10;99.90;;;;;;4918129;29;20058;-93
2022/12/22 17:23:52;;;;;;;32.53;25.15;;;12.10;99.90;;;;;;4918473;29;20028;-94
2022/12/22 17:26:23;;;;;;;49.33;29.83;;;12.10;99.90;;;;;;4919386;29;20042;-94
2022/12/22 17:28:52;;;;;;;42.75;29.35;;;12.20;99.90;;;;;;4919258;29;20028;-94
2022/12/22 17:31:21;;;;;;;43.42;31.77;;;12.10;99.90;;;;;;4917249;29;20043;-94
2022/12/22 17:33:48;;;;;;;46.97;31.60;;;12.20;99.90;;;;;;4901212;29;20059;-94
2022/12/22 17:36:33;;;;;;;49.45;32.67;;;12.10;99.90;;;;;;4917731;29;20024;-94
2022/12/22 17:39:02;;;;;;;43.17;31.40;;;12.10;99.90;;;;;;4921402;29;20039;-94
2022/12/22 17:41:29;;;;;;;56.63;37.13;;;12.00;99.90;;;;;;4919420;29;20047;-95
2022/12/22 17:43:56;;;;;;;56.80;37.90;;;12.00;99.90;;;;;;4917963;29;20031;-94
2022/12/22 17:46:48;;;;;;;62.33;39.28;;;12.00;99.90;;;;;;4926426;29;20493;-95
2022/12/22 17:49:39;;;;;;;56.38;37.38;;;12.00;99.90;;;;;;4915723;29;20040;-94
2022/12/22 17:52:28;;;;;;;62.05;41.78;;;12.00;99.90;;;;;;4912075;29;20032;-94
2022/12/22 17:54:55;;;;;;;58.58;41.30;;;11.90;99.90;;;;;;4904576;29;20088;-95
2022/12/22 17:57:29;;;;;;;65.53;45.13;;;11.80;99.90;;;;;;4923325;29;20111;-95
2022/12/22 17:59:56;;;;;;;65.22;43.95;;;11.80;99.90;;;;;;4921837;29;20040;-95
2022/12/22 18:02:24;;;;;;;61.00;42.28;;;11.70;99.90;;;;;;4922052;29;20081;-94
2022/12/22 18:04:51;;;;;;;59.70;39.97;;;11.70;99.90;;;;;;4905748;29;20035;-95
2022/12/22 18:07:25;;;;;;;62.17;45.47;;;11.70;99.90;;;;;;4907886;29;20021;-95
2022/12/22 18:09:58;;;;;;;;;;;11.70;99.90;;;;;;4922726;29;20032;-95
2022/12/22 18:12:25;;;;;;;50.25;35.92;;;11.60;99.90;;;;;;4920944;29;19911;-94
2022/12/22 18:15:03;;;;;;;42.38;33.80;;;11.70;99.90;;;;;;4908310;29;20028;-94
2022/12/22 18:18:10;;;;;;;50.35;34.80;;;11.70;99.90;;;;;;4935826;29;20130;-95
2022/12/22 18:23:32;;;;;;;65.30;44.05;;;11.60;99.90;;;;;;5159039;23;20059;-92
2022/12/22 18:28:55;;;;;;;52.90;36.63;;;11.40;99.90;;;;;;5053680;23;20066;-95
2022/12/22 18:31:23;;;;;;;58.47;42.67;;;11.30;99.90;;;;;;4947412;28;20039;-93
2022/12/22 18:33:49;;;;;;;69.90;49.53;;;11.20;99.90;;;;;;4949800;28;20039;-93
2022/12/22 18:39:22;;;;;;;57.20;37.17;;;10.90;99.90;;;;;;5029632;23;20059;-93
2022/12/22 18:45:35;;;;;;;55.83;37.38;;;10.70;99.90;;;;;;5089471;23;20093;-93
2022/12/22 18:48:22;;;;;;;55.08;38.25;;;10.50;99.90;;;;;;4888624;29;20033;-93
2022/12/22 18:50:49;;;;;;;63.22;41.05;;;10.40;99.90;;;;;;4897350;29;20067;-95
2022/12/22 18:53:35;;;;;;;66.57;43.42;;;10.30;99.90;;;;;;4891834;29;20043;-93
2022/12/22 18:56:11;;;;;;;65.75;42.95;;;10.20;99.90;;;;;;4913728;29;20047;-95
2022/12/22 19:01:31;;;;;;;72.22;46.58;;;10.00;99.90;;;;;;5783926;23;19923;-94
2022/12/22 19:04:04;;;;;;;71.18;45.63;;;9.90;99.90;;;;;;4948104;29;20039;-93
2022/12/22 19:19:05;;;;;;;78.70;52.10;;;9.70;99.90;;;;;;4957689;29;20094;-93
2022/12/22 19:21:32;;;;;;;85.82;53.35;;;9.60;99.90;;;;;;4924058;29;20028;-93
2022/12/22 19:24:19;;;;;;;86.78;52.40;;;9.60;99.90;;;;;;4938123;29;20040;-94
2022/12/22 19:26:53;;;;;;;80.18;52.45;;;9.50;99.90;;;;;;4942896;29;20114;-94
2022/12/22 19:29:41;;;;;;;86.30;54.72;;;9.50;99.90;;;;;;4956683;29;20055;-94
2022/12/22 20:21:44;;;;;;;94.68;57.85;;;8.80;99.90;;;;;;1453434;23;20252;-92
2022/12/22 20:24:37;;;;;;;94.20;57.08;;;8.80;99.90;;;;;;4946075;29;20047;-93
2022/12/22 20:27:24;;;;;;;103.30;59.58;;;8.70;99.90;;;;;;4930273;29;20035;-94
2022/12/22 20:29:53;;;;;;;99.82;60.30;;;8.70;99.90;;;;;;4929219;29;20059;-94
2022/12/22 20:32:28;;;;;;;94.60;58.38;;;8.70;99.90;;;;;;4928475;29;20047;-94
2022/12/22 20:34:55;;;;;;;99.88;59.65;;;8.60;99.90;;;;;;4928756;29;20036;-93
2022/12/22 20:37:25;;;;;;;100.25;57.30;;;8.50;99.90;;;;;;4925378;29;20023;-93
2022/12/22 20:43:52;;;;;;;86.65;52.15;;;8.40;99.90;;;;;;5109469;23;20085;-93
2022/12/22 20:46:26;;;;;;;83.57;51.95;;;8.30;99.90;;;;;;4919946;29;20043;-93
2022/12/22 20:49:04;;;;;;;87.72;52.83;;;8.30;99.90;;;;;;4920784;29;20039;-94
2022/12/22 20:51:48;;;;;;;108.00;61.88;;;8.30;99.90;;;;;;4886589;29;20115;-93
2022/12/22 20:54:18;;;;;;;109.63;64.67;;;8.30;99.90;;;;;;4887342;29;20156;-95
2022/12/22 20:56:45;;;;;;;104.53;59.88;;;8.30;99.90;;;;;;4886707;29;20067;-93
2022/12/22 20:59:22;;;;;;;99.40;60.05;;;8.40;99.90;;;;;;4885876;29;20541;-94
2022/12/22 21:01:51;;;;;;;123.88;73.95;;;8.40;99.90;;;;;;4885902;29;20044;-93
2022/12/22 21:04:17;;;;;;;121.00;70.93;;;8.50;99.90;;;;;;4885371;29;20020;-94
2022/12/22 21:07:04;;;;;;;127.93;72.20;;;8.60;99.90;;;;;;4885727;29;20044;-93
2022/12/22 21:09:31;;;;;;;128.52;77.03;;;8.60;99.90;;;;;;4885638;29;20182;-93
2022/12/22 21:11:57;;;;;;;121.22;69.80;;;8.70;99.90;;;;;;4885543;29;20040;-93
2022/12/22 21:14:24;;;;;;;128.15;73.18;;;8.80;99.90;;;;;;4898186;29;20048;-93
2022/12/22 21:16:51;;;;;;;120.82;68.97;;;8.80;99.90;;;;;;4885563;29;20047;-94
2022/12/22 21:19:18;;;;;;;119.25;69.82;;;8.90;99.90;;;;;;4889040;29;20040;-93